Terminal Aerodrome Forecast
Issued by NWS

Home | Current Version | Previous Version | Graphics & Text | Print | Product List | Glossary On
Versions: 1 2 3 4 5 6 7 8 9 10 11 12 13 14 15 16 17 18 19 20 21
000
FTUS42 KMHX 010800 AAB
TAFISO
TAF AMD
KISO 010858Z 0109/0206 01003KT P6SM SCT050 BKN150
      TEMPO 0109/0111 3SM BR
     FM011100 03007KT P6SM VCSH SCT025 BKN050
     FM011800 36012G18KT 3SM RA VCTS OVC015CB
     FM020000 33017G27KT 5SM -RA OVC020
      AMD LTD TO CLD VIS AND WIND=

USA.gov is the U.S. government's official web portal to all federal, state and local government web resources and services.